KQA510 HKJK-DGAA
Flight info
| Callsign | KQA510 |
|---|---|
| Flight time | N/A |
| Altitude | 36000 |
| Route | NAKAT4B NAKAT UL433 NN UL434 AGVIR/N0454F380 UL434 NLY/N0449F400 UR984 DLA UP685 ARDEX UA601 TYE/N0395F240 L433 EREKA EREKA1B |
| Aircraft | B738/M-SDE2E3FGHIRWXY/LB1 |
Departure
| Time | N/A |
|---|---|
| Airport | Jomo Kenyatta International Airport (HKJK) |
Arrival
| Time | 2026-04-27 12:53 |
|---|---|
| Airport | Kotoka International Airport (DGAA) |
| Time | Latitude | Longitude | Altitude | Speed | Heading |
|---|---|---|---|---|---|
| 2026-04-27 11:04 | 3.86223 | 10.63994 | 37998 ft | 424 kts | 279° |
| 2026-04-27 11:04 | 3.87045 | 10.58426 | 37997 ft | 424 kts | 279° |
| 2026-04-27 11:05 | 3.87905 | 10.52596 | 37997 ft | 423 kts | 279° |
| 2026-04-27 11:05 | 3.88765 | 10.46771 | 37997 ft | 423 kts | 279° |
| 2026-04-27 11:06 | 3.89626 | 10.40939 | 37997 ft | 423 kts | 279° |
| 2026-04-27 11:06 | 3.90484 | 10.35113 | 37996 ft | 423 kts | 279° |
| 2026-04-27 11:07 | 3.91337 | 10.29309 | 37997 ft | 423 kts | 279° |
| 2026-04-27 11:07 | 3.92192 | 10.23474 | 37997 ft | 423 kts | 279° |
| 2026-04-27 11:08 | 3.93051 | 10.17648 | 37996 ft | 423 kts | 279° |
| 2026-04-27 11:08 | 3.93912 | 10.11822 | 37997 ft | 423 kts | 279° |
| 2026-04-27 11:09 | 3.94771 | 10.05988 | 37997 ft | 423 kts | 279° |
| 2026-04-27 11:09 | 3.95629 | 10.00156 | 37997 ft | 423 kts | 279° |
| 2026-04-27 11:10 | 3.96478 | 9.94358 | 37997 ft | 423 kts | 279° |
| 2026-04-27 11:10 | 3.97331 | 9.88520 | 37997 ft | 423 kts | 279° |
| 2026-04-27 11:11 | 3.98180 | 9.82693 | 37997 ft | 423 kts | 279° |
| 2026-04-27 11:11 | 3.99034 | 9.76858 | 37998 ft | 423 kts | 279° |
| 2026-04-27 11:12 | 3.99757 | 9.71010 | 37996 ft | 423 kts | 276° |
| 2026-04-27 11:12 | 4.00175 | 9.65166 | 37997 ft | 423 kts | 274° |
| 2026-04-27 11:13 | 4.00534 | 9.59287 | 37997 ft | 423 kts | 274° |
| 2026-04-27 11:13 | 4.00912 | 9.53404 | 37997 ft | 423 kts | 274° |
| 2026-04-27 11:14 | 4.01302 | 9.47530 | 37997 ft | 423 kts | 275° |
| 2026-04-27 11:14 | 4.01699 | 9.41651 | 37997 ft | 423 kts | 275° |
| 2026-04-27 11:15 | 4.02101 | 9.35775 | 37997 ft | 423 kts | 275° |
| 2026-04-27 11:15 | 4.02506 | 9.29903 | 37997 ft | 423 kts | 275° |
| 2026-04-27 11:16 | 4.02908 | 9.24063 | 37997 ft | 423 kts | 275° |
| 2026-04-27 11:16 | 4.03312 | 9.18190 | 37997 ft | 423 kts | 275° |
| 2026-04-27 11:17 | 4.03717 | 9.12300 | 37997 ft | 423 kts | 275° |
| 2026-04-27 11:17 | 4.04119 | 9.06454 | 37997 ft | 423 kts | 275° |
| 2026-04-27 11:18 | 4.04522 | 9.00580 | 37997 ft | 423 kts | 275° |
| 2026-04-27 11:18 | 4.04925 | 8.94703 | 37997 ft | 423 kts | 275° |
| 2026-04-27 11:19 | 4.05328 | 8.88823 | 37997 ft | 423 kts | 275° |
| 2026-04-27 11:19 | 4.05729 | 8.82947 | 37997 ft | 423 kts | 275° |
| 2026-04-27 11:20 | 4.06131 | 8.77072 | 37997 ft | 423 kts | 275° |
| 2026-04-27 11:20 | 4.06532 | 8.71203 | 37997 ft | 423 kts | 275° |
| 2026-04-27 11:21 | 4.06930 | 8.65362 | 37997 ft | 423 kts | 275° |
| 2026-04-27 11:21 | 4.07330 | 8.59489 | 37998 ft | 423 kts | 275° |
| 2026-04-27 11:22 | 4.07729 | 8.53617 | 37997 ft | 423 kts | 275° |
| 2026-04-27 11:22 | 4.08128 | 8.47750 | 37997 ft | 423 kts | 275° |
| 2026-04-27 11:23 | 4.08527 | 8.41867 | 37997 ft | 423 kts | 275° |
| 2026-04-27 11:23 | 4.08924 | 8.36000 | 37997 ft | 423 kts | 275° |
| 2026-04-27 11:24 | 4.09322 | 8.30124 | 37997 ft | 422 kts | 275° |
| 2026-04-27 11:24 | 4.09719 | 8.24245 | 37997 ft | 422 kts | 275° |
| 2026-04-27 11:25 | 4.10116 | 8.18373 | 37997 ft | 422 kts | 275° |
| 2026-04-27 11:25 | 4.10513 | 8.12495 | 37997 ft | 422 kts | 275° |
| 2026-04-27 11:26 | 4.10905 | 8.06659 | 37997 ft | 422 kts | 275° |
| 2026-04-27 11:26 | 4.11298 | 8.00787 | 37997 ft | 422 kts | 275° |
| 2026-04-27 11:27 | 4.11689 | 7.94916 | 37997 ft | 422 kts | 275° |
| 2026-04-27 11:27 | 4.12248 | 7.89061 | 37997 ft | 423 kts | 281° |
| 2026-04-27 11:28 | 4.13957 | 7.83419 | 37997 ft | 424 kts | 290° |
| 2026-04-27 11:28 | 4.16100 | 7.77943 | 37997 ft | 424 kts | 291° |
| 2026-04-27 11:29 | 4.18301 | 7.72458 | 37997 ft | 424 kts | 292° |
| 2026-04-27 11:29 | 4.20526 | 7.66984 | 37997 ft | 424 kts | 292° |
| 2026-04-27 11:30 | 4.22761 | 7.61510 | 37997 ft | 424 kts | 292° |
| 2026-04-27 11:30 | 4.24999 | 7.56039 | 37997 ft | 424 kts | 292° |
| 2026-04-27 11:31 | 4.27234 | 7.50572 | 37997 ft | 424 kts | 292° |
| 2026-04-27 11:31 | 4.29470 | 7.45101 | 37996 ft | 424 kts | 292° |
| 2026-04-27 11:32 | 4.31699 | 7.39659 | 37997 ft | 424 kts | 292° |
| 2026-04-27 11:32 | 4.33928 | 7.34186 | 37997 ft | 424 kts | 292° |
| 2026-04-27 11:33 | 4.36154 | 7.28703 | 37997 ft | 424 kts | 292° |
| 2026-04-27 11:33 | 4.38370 | 7.23231 | 37997 ft | 424 kts | 292° |
| 2026-04-27 11:34 | 4.40590 | 7.17757 | 37997 ft | 424 kts | 292° |
| 2026-04-27 11:34 | 4.42809 | 7.12276 | 37997 ft | 424 kts | 292° |
| 2026-04-27 11:35 | 4.45014 | 7.06822 | 37997 ft | 424 kts | 292° |
| 2026-04-27 11:35 | 4.47226 | 7.01349 | 37997 ft | 424 kts | 291° |
| 2026-04-27 11:36 | 4.49441 | 6.95864 | 37997 ft | 424 kts | 292° |
| 2026-04-27 11:36 | 4.51659 | 6.90384 | 37997 ft | 424 kts | 292° |
| 2026-04-27 11:37 | 4.53894 | 6.84923 | 37997 ft | 424 kts | 292° |
| 2026-04-27 11:37 | 4.56125 | 6.79444 | 37997 ft | 424 kts | 292° |
| 2026-04-27 11:38 | 4.58349 | 6.73972 | 37997 ft | 424 kts | 292° |
| 2026-04-27 11:38 | 4.60563 | 6.68536 | 37997 ft | 424 kts | 292° |
| 2026-04-27 11:39 | 4.62811 | 6.63062 | 37997 ft | 424 kts | 292° |
| 2026-04-27 11:39 | 4.65058 | 6.57597 | 37997 ft | 424 kts | 292° |
| 2026-04-27 11:40 | 4.67304 | 6.52126 | 37997 ft | 424 kts | 292° |
| 2026-04-27 11:40 | 4.69166 | 6.47586 | 37997 ft | 424 kts | 292° |
| 2026-04-27 11:41 | 4.71411 | 6.42119 | 37996 ft | 424 kts | 292° |
| 2026-04-27 11:41 | 4.73652 | 6.36653 | 37997 ft | 424 kts | 292° |
| 2026-04-27 11:42 | 4.75893 | 6.31179 | 37997 ft | 424 kts | 292° |
| 2026-04-27 11:42 | 4.78130 | 6.25711 | 37998 ft | 424 kts | 292° |
| 2026-04-27 11:43 | 4.80366 | 6.20242 | 37997 ft | 424 kts | 292° |
| 2026-04-27 11:43 | 4.82602 | 6.14774 | 37997 ft | 424 kts | 292° |
| 2026-04-27 11:44 | 4.84797 | 6.09331 | 37997 ft | 424 kts | 291° |
| 2026-04-27 11:44 | 4.87000 | 6.03850 | 37997 ft | 424 kts | 291° |
| 2026-04-27 11:45 | 4.89202 | 5.98361 | 37997 ft | 424 kts | 291° |
| 2026-04-27 11:45 | 4.91403 | 5.92871 | 37996 ft | 424 kts | 291° |
| 2026-04-27 11:46 | 4.93605 | 5.87389 | 37997 ft | 424 kts | 291° |
| 2026-04-27 11:46 | 4.95806 | 5.81900 | 37997 ft | 424 kts | 291° |
| 2026-04-27 11:47 | 4.97998 | 5.76422 | 37997 ft | 424 kts | 291° |
| 2026-04-27 11:47 | 5.00180 | 5.70967 | 37997 ft | 424 kts | 291° |
| 2026-04-27 11:48 | 5.02374 | 5.65482 | 37997 ft | 424 kts | 291° |
| 2026-04-27 11:48 | 5.04583 | 5.59988 | 37997 ft | 424 kts | 292° |
| 2026-04-27 11:49 | 5.06806 | 5.54514 | 37997 ft | 424 kts | 292° |
| 2026-04-27 11:49 | 5.09020 | 5.49044 | 37997 ft | 424 kts | 292° |
| 2026-04-27 11:50 | 5.11222 | 5.43595 | 37997 ft | 424 kts | 292° |
| 2026-04-27 11:50 | 5.13434 | 5.38118 | 37997 ft | 424 kts | 292° |
| 2026-04-27 11:51 | 5.15648 | 5.32630 | 37997 ft | 424 kts | 292° |
| 2026-04-27 11:52 | 5.18967 | 5.24410 | 37997 ft | 424 kts | 292° |
| 2026-04-27 11:52 | 5.21176 | 5.18935 | 37997 ft | 424 kts | 292° |
| 2026-04-27 11:53 | 5.23389 | 5.13449 | 37997 ft | 424 kts | 291° |
| 2026-04-27 11:53 | 5.25585 | 5.08001 | 37997 ft | 424 kts | 291° |
| 2026-04-27 11:54 | 5.27793 | 5.02520 | 37997 ft | 423 kts | 291° |
| 2026-04-27 11:54 | 5.30001 | 4.97039 | 37997 ft | 423 kts | 291° |
| 2026-04-27 11:55 | 5.32210 | 4.91553 | 37996 ft | 423 kts | 292° |
| 2026-04-27 11:55 | 5.34418 | 4.86071 | 37997 ft | 423 kts | 291° |
| 2026-04-27 11:56 | 5.36623 | 4.80589 | 37998 ft | 423 kts | 291° |
| 2026-04-27 11:56 | 5.38827 | 4.75100 | 37997 ft | 423 kts | 291° |
| 2026-04-27 11:57 | 5.41014 | 4.69653 | 37997 ft | 423 kts | 291° |
| 2026-04-27 11:57 | 5.43218 | 4.64174 | 37998 ft | 423 kts | 291° |
| 2026-04-27 11:58 | 5.45082 | 4.59540 | 37997 ft | 423 kts | 291° |
| 2026-04-27 11:58 | 5.46919 | 4.54962 | 37997 ft | 423 kts | 291° |
| 2026-04-27 11:59 | 5.49116 | 4.49471 | 37997 ft | 423 kts | 291° |
| 2026-04-27 11:59 | 5.51312 | 4.43976 | 37997 ft | 423 kts | 291° |
| 2026-04-27 12:00 | 5.53505 | 4.38487 | 37997 ft | 423 kts | 291° |
| 2026-04-27 12:00 | 5.55683 | 4.33031 | 37997 ft | 423 kts | 291° |
| 2026-04-27 12:01 | 5.57877 | 4.27538 | 37997 ft | 423 kts | 291° |
| 2026-04-27 12:01 | 5.60066 | 4.22058 | 37997 ft | 423 kts | 291° |
| 2026-04-27 12:02 | 5.62256 | 4.16570 | 37997 ft | 423 kts | 291° |
| 2026-04-27 12:02 | 5.64446 | 4.11084 | 37997 ft | 423 kts | 291° |
| 2026-04-27 12:03 | 5.66635 | 4.05594 | 37997 ft | 423 kts | 291° |
| 2026-04-27 12:03 | 5.68808 | 4.00136 | 37997 ft | 423 kts | 291° |
| 2026-04-27 12:04 | 5.70991 | 3.94647 | 37997 ft | 423 kts | 291° |
| 2026-04-27 12:04 | 5.73177 | 3.89150 | 37997 ft | 423 kts | 291° |
| 2026-04-27 12:05 | 5.75369 | 3.83661 | 37998 ft | 423 kts | 292° |
| 2026-04-27 12:05 | 5.77709 | 3.78224 | 37997 ft | 423 kts | 293° |
| 2026-04-27 12:06 | 5.80045 | 3.72800 | 37997 ft | 423 kts | 293° |
| 2026-04-27 12:06 | 5.82380 | 3.67362 | 37997 ft | 423 kts | 293° |
| 2026-04-27 12:07 | 5.84695 | 3.61958 | 37997 ft | 423 kts | 293° |
| 2026-04-27 12:07 | 5.87022 | 3.56521 | 37997 ft | 423 kts | 293° |
| 2026-04-27 12:08 | 5.89350 | 3.51081 | 37997 ft | 423 kts | 293° |
| 2026-04-27 12:08 | 5.91680 | 3.45641 | 37997 ft | 423 kts | 293° |
| 2026-04-27 12:09 | 5.94005 | 3.40205 | 37997 ft | 423 kts | 293° |
| 2026-04-27 12:09 | 5.96330 | 3.34768 | 37997 ft | 423 kts | 293° |
| 2026-04-27 12:10 | 5.98655 | 3.29326 | 37997 ft | 423 kts | 293° |
| 2026-04-27 12:10 | 6.00964 | 3.23918 | 37995 ft | 423 kts | 293° |
| 2026-04-27 12:11 | 6.03284 | 3.18482 | 37997 ft | 423 kts | 293° |
| 2026-04-27 12:11 | 6.05606 | 3.13039 | 37996 ft | 423 kts | 293° |
| 2026-04-27 12:12 | 6.07926 | 3.07601 | 37997 ft | 423 kts | 293° |
| 2026-04-27 12:12 | 6.10249 | 3.02157 | 37997 ft | 423 kts | 293° |
| 2026-04-27 12:13 | 6.12568 | 2.96718 | 37997 ft | 423 kts | 293° |
| 2026-04-27 12:13 | 6.14869 | 2.91314 | 37997 ft | 423 kts | 293° |
| 2026-04-27 12:14 | 6.17183 | 2.85872 | 37997 ft | 423 kts | 292° |
| 2026-04-27 12:14 | 6.19498 | 2.80428 | 37997 ft | 423 kts | 293° |
| 2026-04-27 12:15 | 6.21813 | 2.74989 | 37996 ft | 423 kts | 292° |
| 2026-04-27 12:15 | 6.24038 | 2.69514 | 37997 ft | 423 kts | 292° |
| 2026-04-27 12:16 | 6.26254 | 2.64028 | 37997 ft | 423 kts | 292° |
| 2026-04-27 12:16 | 6.28462 | 2.58550 | 37997 ft | 423 kts | 292° |
| 2026-04-27 12:17 | 6.30669 | 2.53066 | 37997 ft | 423 kts | 291° |
| 2026-04-27 12:17 | 6.32875 | 2.47581 | 37997 ft | 423 kts | 291° |
| 2026-04-27 12:18 | 6.34982 | 2.42093 | 37985 ft | 422 kts | 285° |
| 2026-04-27 12:18 | 6.35599 | 2.36261 | 37999 ft | 421 kts | 268° |
| 2026-04-27 12:19 | 6.34927 | 2.30409 | 37997 ft | 422 kts | 262° |
| 2026-04-27 12:19 | 6.33962 | 2.24592 | 37997 ft | 422 kts | 262° |
| 2026-04-27 12:20 | 6.33015 | 2.18776 | 37997 ft | 422 kts | 262° |
| 2026-04-27 12:20 | 6.32084 | 2.12958 | 37997 ft | 422 kts | 262° |
| 2026-04-27 12:21 | 6.31171 | 2.07171 | 37997 ft | 421 kts | 262° |
| 2026-04-27 12:21 | 6.30253 | 2.01349 | 37997 ft | 421 kts | 262° |
| 2026-04-27 12:22 | 6.29333 | 1.95527 | 37997 ft | 421 kts | 262° |
| 2026-04-27 12:22 | 6.28411 | 1.89704 | 37997 ft | 421 kts | 262° |
| 2026-04-27 12:23 | 6.27489 | 1.83884 | 37997 ft | 421 kts | 262° |
| 2026-04-27 12:23 | 6.26569 | 1.78071 | 37488 ft | 418 kts | 262° |
| 2026-04-27 12:23 | 6.26115 | 1.75187 | 36821 ft | 418 kts | 262° |
| 2026-04-27 12:24 | 6.25656 | 1.72296 | 36175 ft | 418 kts | 262° |
| 2026-04-27 12:24 | 6.25196 | 1.69408 | 35513 ft | 419 kts | 262° |
| 2026-04-27 12:24 | 6.24734 | 1.66513 | 34834 ft | 419 kts | 262° |
| 2026-04-27 12:24 | 6.24276 | 1.63650 | 34158 ft | 419 kts | 262° |
| 2026-04-27 12:25 | 6.23814 | 1.60756 | 33471 ft | 420 kts | 262° |
| 2026-04-27 12:25 | 6.23353 | 1.57861 | 32843 ft | 418 kts | 262° |
| 2026-04-27 12:25 | 6.22896 | 1.54988 | 32315 ft | 414 kts | 262° |
| 2026-04-27 12:25 | 6.22442 | 1.52138 | 31794 ft | 411 kts | 262° |
| 2026-04-27 12:26 | 6.21992 | 1.49315 | 31287 ft | 407 kts | 262° |
| 2026-04-27 12:26 | 6.21695 | 1.47462 | 30945 ft | 404 kts | 262° |
| 2026-04-27 12:26 | 6.21453 | 1.45948 | 30672 ft | 403 kts | 262° |
| 2026-04-27 12:26 | 6.21009 | 1.43174 | 30176 ft | 399 kts | 262° |
| 2026-04-27 12:27 | 6.20570 | 1.40432 | 29685 ft | 396 kts | 262° |
| 2026-04-27 12:27 | 6.20135 | 1.37712 | 29207 ft | 393 kts | 262° |
| 2026-04-27 12:27 | 6.19702 | 1.35017 | 28732 ft | 389 kts | 262° |
| 2026-04-27 12:27 | 6.19273 | 1.32338 | 28243 ft | 386 kts | 262° |
| 2026-04-27 12:28 | 6.18844 | 1.29684 | 27765 ft | 383 kts | 261° |
| 2026-04-27 12:28 | 6.18244 | 1.27083 | 27289 ft | 381 kts | 255° |
| 2026-04-27 12:28 | 6.17378 | 1.24577 | 26817 ft | 379 kts | 251° |
| 2026-04-27 12:28 | 6.16385 | 1.22139 | 26347 ft | 376 kts | 249° |
| 2026-04-27 12:29 | 6.15344 | 1.19737 | 25880 ft | 373 kts | 248° |
| 2026-04-27 12:29 | 6.14308 | 1.17356 | 25413 ft | 370 kts | 248° |
| 2026-04-27 12:29 | 6.13278 | 1.14994 | 24953 ft | 368 kts | 248° |
| 2026-04-27 12:29 | 6.12273 | 1.12666 | 24495 ft | 365 kts | 249° |
| 2026-04-27 12:30 | 6.11267 | 1.10339 | 24038 ft | 362 kts | 249° |
| 2026-04-27 12:30 | 6.10267 | 1.08027 | 23584 ft | 360 kts | 249° |
| 2026-04-27 12:30 | 6.09276 | 1.05732 | 23130 ft | 357 kts | 249° |
| 2026-04-27 12:30 | 6.08291 | 1.03450 | 22679 ft | 354 kts | 249° |
| 2026-04-27 12:31 | 6.07311 | 1.01179 | 22235 ft | 352 kts | 249° |
| 2026-04-27 12:31 | 6.06366 | 0.98926 | 21790 ft | 349 kts | 250° |
| 2026-04-27 12:31 | 6.05511 | 0.96647 | 21339 ft | 346 kts | 251° |
| 2026-04-27 12:31 | 6.04677 | 0.94382 | 20903 ft | 344 kts | 251° |
| 2026-04-27 12:32 | 6.03845 | 0.92137 | 20465 ft | 341 kts | 251° |
| 2026-04-27 12:32 | 6.03013 | 0.89905 | 20027 ft | 339 kts | 251° |
| 2026-04-27 12:32 | 6.02188 | 0.87697 | 19602 ft | 337 kts | 251° |
| 2026-04-27 12:32 | 6.01376 | 0.85530 | 19187 ft | 334 kts | 251° |
| 2026-04-27 12:33 | 6.00559 | 0.83351 | 18760 ft | 332 kts | 251° |
| 2026-04-27 12:33 | 5.99746 | 0.81183 | 18335 ft | 330 kts | 251° |
| 2026-04-27 12:33 | 5.98964 | 0.79019 | 17913 ft | 328 kts | 254° |
| 2026-04-27 12:33 | 5.98413 | 0.76801 | 17496 ft | 325 kts | 260° |
| 2026-04-27 12:34 | 5.98029 | 0.74575 | 17094 ft | 322 kts | 262° |
| 2026-04-27 12:34 | 5.97681 | 0.72360 | 16686 ft | 321 kts | 262° |
| 2026-04-27 12:34 | 5.97332 | 0.70152 | 16278 ft | 319 kts | 262° |
| 2026-04-27 12:34 | 5.96983 | 0.67961 | 15881 ft | 316 kts | 262° |
| 2026-04-27 12:35 | 5.96633 | 0.65778 | 15474 ft | 315 kts | 262° |
| 2026-04-27 12:35 | 5.96284 | 0.63614 | 15073 ft | 313 kts | 262° |
| 2026-04-27 12:35 | 5.95940 | 0.61485 | 14682 ft | 311 kts | 262° |
| 2026-04-27 12:35 | 5.95593 | 0.59344 | 14289 ft | 310 kts | 262° |
| 2026-04-27 12:36 | 5.95248 | 0.57218 | 13897 ft | 308 kts | 262° |
| 2026-04-27 12:36 | 5.94905 | 0.55100 | 13509 ft | 306 kts | 262° |
| 2026-04-27 12:36 | 5.94564 | 0.52994 | 13120 ft | 304 kts | 262° |
| 2026-04-27 12:36 | 5.94224 | 0.50898 | 12728 ft | 303 kts | 262° |
| 2026-04-27 12:37 | 5.93885 | 0.48815 | 12335 ft | 302 kts | 262° |
| 2026-04-27 12:37 | 5.93546 | 0.46740 | 11937 ft | 301 kts | 262° |
| 2026-04-27 12:37 | 5.93208 | 0.44669 | 11543 ft | 300 kts | 262° |
| 2026-04-27 12:37 | 5.92874 | 0.42624 | 11350 ft | 292 kts | 262° |
| 2026-04-27 12:38 | 5.92549 | 0.40638 | 11206 ft | 283 kts | 262° |
| 2026-04-27 12:38 | 5.92236 | 0.38725 | 11140 ft | 272 kts | 262° |
| 2026-04-27 12:38 | 5.91935 | 0.36887 | 11047 ft | 263 kts | 262° |
| 2026-04-27 12:38 | 5.91641 | 0.35090 | 10819 ft | 259 kts | 262° |
| 2026-04-27 12:39 | 5.91348 | 0.33306 | 10527 ft | 258 kts | 262° |
| 2026-04-27 12:39 | 5.91057 | 0.31528 | 10231 ft | 257 kts | 262° |
| 2026-04-27 12:39 | 5.90767 | 0.29760 | 9936 ft | 256 kts | 262° |
| 2026-04-27 12:39 | 5.90479 | 0.27999 | 9642 ft | 255 kts | 262° |
| 2026-04-27 12:40 | 5.90192 | 0.26242 | 9346 ft | 254 kts | 262° |
| 2026-04-27 12:40 | 5.89908 | 0.24518 | 9081 ft | 253 kts | 262° |
| 2026-04-27 12:40 | 5.89625 | 0.22774 | 8761 ft | 252 kts | 262° |
| 2026-04-27 12:40 | 5.89345 | 0.21053 | 8454 ft | 247 kts | 262° |
| 2026-04-27 12:41 | 5.89071 | 0.19373 | 8128 ft | 239 kts | 262° |
| 2026-04-27 12:41 | 5.88809 | 0.17760 | 7825 ft | 228 kts | 263° |
| 2026-04-27 12:41 | 5.88808 | 0.16208 | 7522 ft | 217 kts | 272° |
| 2026-04-27 12:41 | 5.88663 | 0.14760 | 7247 ft | 207 kts | 261° |
| 2026-04-27 12:42 | 5.88337 | 0.13397 | 6997 ft | 193 kts | 258° |
| 2026-04-27 12:42 | 5.88032 | 0.12128 | 6744 ft | 182 kts | 260° |
| 2026-04-27 12:42 | 5.87775 | 0.10911 | 6507 ft | 175 kts | 261° |
| 2026-04-27 12:42 | 5.87539 | 0.09723 | 6281 ft | 172 kts | 263° |
| 2026-04-27 12:43 | 5.87334 | 0.08570 | 6052 ft | 163 kts | 264° |
| 2026-04-27 12:43 | 5.87146 | 0.07469 | 5835 ft | 159 kts | 265° |
| 2026-04-27 12:43 | 5.86966 | 0.06388 | 5634 ft | 155 kts | 266° |
| 2026-04-27 12:43 | 5.86790 | 0.05316 | 5438 ft | 156 kts | 266° |
| 2026-04-27 12:44 | 5.86610 | 0.04234 | 5239 ft | 158 kts | 266° |
| 2026-04-27 12:44 | 5.86427 | 0.03141 | 5005 ft | 160 kts | 266° |
| 2026-04-27 12:44 | 5.86249 | 0.02046 | 4857 ft | 158 kts | 267° |
| 2026-04-27 12:44 | 5.86075 | 0.00957 | 4748 ft | 158 kts | 266° |
| 2026-04-27 12:45 | 5.85904 | -0.00158 | 4726 ft | 165 kts | 266° |
| 2026-04-27 12:45 | 5.85717 | -0.01332 | 4524 ft | 174 kts | 264° |
| 2026-04-27 12:45 | 5.85524 | -0.02489 | 4357 ft | 165 kts | 264° |
| 2026-04-27 12:45 | 5.85343 | -0.03596 | 4227 ft | 157 kts | 265° |
| 2026-04-27 12:46 | 5.85174 | -0.04651 | 4096 ft | 150 kts | 266° |
| 2026-04-27 12:46 | 5.84630 | -0.05529 | 3874 ft | 147 kts | 234° |
| 2026-04-27 12:46 | 5.83820 | -0.06118 | 3916 ft | 144 kts | 221° |
| 2026-04-27 12:46 | 5.82934 | -0.06589 | 3809 ft | 145 kts | 214° |
| 2026-04-27 12:47 | 5.82018 | -0.07015 | 3597 ft | 144 kts | 212° |
| 2026-04-27 12:47 | 5.81110 | -0.07420 | 3460 ft | 142 kts | 213° |
| 2026-04-27 12:47 | 5.80206 | -0.07821 | 3343 ft | 142 kts | 213° |
| 2026-04-27 12:47 | 5.79303 | -0.08221 | 3226 ft | 142 kts | 212° |
| 2026-04-27 12:48 | 5.78402 | -0.08619 | 3109 ft | 141 kts | 212° |
| 2026-04-27 12:48 | 5.77502 | -0.09018 | 2994 ft | 141 kts | 213° |
| 2026-04-27 12:48 | 5.76615 | -0.09412 | 2876 ft | 141 kts | 212° |
| 2026-04-27 12:48 | 5.75719 | -0.09810 | 2751 ft | 141 kts | 213° |
| 2026-04-27 12:49 | 5.74825 | -0.10209 | 2628 ft | 140 kts | 213° |
| 2026-04-27 12:49 | 5.73931 | -0.10608 | 2507 ft | 140 kts | 213° |
| 2026-04-27 12:49 | 5.73039 | -0.11005 | 2388 ft | 140 kts | 213° |
| 2026-04-27 12:49 | 5.72147 | -0.11401 | 2269 ft | 140 kts | 213° |
| 2026-04-27 12:50 | 5.71259 | -0.11796 | 2152 ft | 139 kts | 213° |
| 2026-04-27 12:50 | 5.70373 | -0.12190 | 2047 ft | 139 kts | 213° |
| 2026-04-27 12:50 | 5.69487 | -0.12585 | 1938 ft | 139 kts | 212° |
| 2026-04-27 12:50 | 5.68597 | -0.12979 | 1755 ft | 139 kts | 212° |
| 2026-04-27 12:51 | 5.67716 | -0.13371 | 1569 ft | 138 kts | 213° |
| 2026-04-27 12:51 | 5.66835 | -0.13764 | 1387 ft | 140 kts | 212° |
| 2026-04-27 12:51 | 5.65890 | -0.14231 | 1529 ft | 148 kts | 211° |
| 2026-04-27 12:51 | 5.65049 | -0.14704 | 1479 ft | 133 kts | 206° |
| 2026-04-27 12:52 | 5.64267 | -0.15116 | 1231 ft | 123 kts | 205° |
| 2026-04-27 12:52 | 5.63486 | -0.15454 | 873 ft | 122 kts | 207° |
| 2026-04-27 12:52 | 5.62710 | -0.15769 | 549 ft | 117 kts | 203° |
| 2026-04-27 12:52 | 5.61945 | -0.16060 | 338 ft | 120 kts | 211° |
| 2026-04-27 12:53 | 5.60458 | -0.16676 | 214 ft | 90 kts | 202° |
| 2026-04-27 12:53 | 5.60135 | -0.16809 | 213 ft | 26 kts | 197° |
| 2026-04-27 12:53 | 5.60013 | -0.16859 | 213 ft | 35 kts | 200° |
| 2026-04-27 12:54 | 5.59772 | -0.16956 | 213 ft | 27 kts | 207° |
| 2026-04-27 12:54 | 5.59646 | -0.17036 | 213 ft | 19 kts | 238° |
| 2026-04-27 12:54 | 5.59584 | -0.17134 | 213 ft | 0 kts | 242° |
| 2026-04-27 12:55 | 5.59570 | -0.17163 | 213 ft | 12 kts | 243° |
| 2026-04-27 12:55 | 5.59528 | -0.17242 | 213 ft | 13 kts | 243° |
| 2026-04-27 12:55 | 5.59501 | -0.17341 | 213 ft | 6 kts | 296° |
| 2026-04-27 12:55 | 5.59517 | -0.17373 | 213 ft | 0 kts | 295° |
| 2026-04-27 13:30 | -1.32786 | 36.92394 | 5341 ft | 0 kts | 211° |